Time;durP1;ratioP1;P1;durP2;ratioP2;P2;SDS_P1;SDS_P2;PMS_P1;PMS_P2;Temp;Humidity;BMP_temperature;BMP_pressure;BME280_temperature;BME280_humidity;BME280_pressure;Samples;Min_cycle;Max_cycle;Signal;HPM_P1;HPM_P2
2023/10/26 00:01:55;;;;;;;1.40;0.50;;;;;;;;;;5042098;28;20054;-58
2023/10/26 00:04:21;;;;;;;0.75;0.50;;;;;;;;;;5040682;28;20033;-59
2023/10/26 00:06:47;;;;;;;0.60;0.47;;;;;;;;;;5046866;28;20045;-58
2023/10/26 00:09:14;;;;;;;2.15;0.50;;;;;;;;;;5045953;28;20513;-58
2023/10/26 00:11:40;;;;;;;1.95;0.57;;;;;;;;;;5043565;28;20379;-58
2023/10/26 00:14:06;;;;;;;2.50;0.50;;;;;;;;;;5062284;28;20053;-58
2023/10/26 00:16:32;;;;;;;0.85;0.50;;;;;;;;;;5047468;28;20508;-58
2023/10/26 00:18:58;;;;;;;3.78;0.60;;;;;;;;;;5045203;28;20513;-58
2023/10/26 00:21:24;;;;;;;2.28;0.70;;;;;;;;;;5047403;28;20045;-59
2023/10/26 00:23:50;;;;;;;2.78;0.43;;;;;;;;;;5044284;28;20505;-58
2023/10/26 00:26:16;;;;;;;0.52;0.45;;;;;;;;;;5042398;28;20033;-58
2023/10/26 00:28:47;;;;;;;1.05;0.50;;;;;;;;;;5041278;28;20417;-58
2023/10/26 00:31:13;;;;;;;1.98;0.60;;;;;;;;;;5040464;28;20033;-58
2023/10/26 00:33:39;;;;;;;2.38;0.63;;;;;;;;;;5045020;28;20045;-59
2023/10/26 00:36:06;;;;;;;2.05;0.70;;;;;;;;;;5040982;28;20032;-59
2023/10/26 00:38:32;;;;;;;1.25;0.50;;;;;;;;;;5041817;28;20041;-58
2023/10/26 00:40:58;;;;;;;0.88;0.70;;;;;;;;;;5045018;28;20056;-58
2023/10/26 00:43:25;;;;;;;0.60;0.40;;;;;;;;;;5043800;28;20029;-59
2023/10/26 00:45:52;;;;;;;1.60;0.85;;;;;;;;;;5043929;28;20056;-58
2023/10/26 00:48:20;;;;;;;0.90;0.70;;;;;;;;;;5035078;28;20455;-58
2023/10/26 00:50:47;;;;;;;3.13;0.52;;;;;;;;;;5044501;28;20520;-59
2023/10/26 00:53:16;;;;;;;3.10;1.15;;;;;;;;;;5046012;28;20044;-58
2023/10/26 00:55:45;;;;;;;1.83;0.60;;;;;;;;;;5027172;28;20485;-58
2023/10/26 00:58:13;;;;;;;3.15;0.60;;;;;;;;;;5045794;28;20061;-59
2023/10/26 01:00:40;;;;;;;4.68;0.93;;;;;;;;;;5047431;28;20652;-58
2023/10/26 01:03:06;;;;;;;2.42;0.60;;;;;;;;;;5045981;28;20043;-58
2023/10/26 01:05:32;;;;;;;2.88;0.50;;;;;;;;;;5044147;28;20087;-58
2023/10/26 01:07:59;;;;;;;1.48;0.65;;;;;;;;;;5044893;28;20498;-58
2023/10/26 01:10:26;;;;;;;0.80;0.47;;;;;;;;;;5046604;28;20037;-58
2023/10/26 01:12:53;;;;;;;0.85;0.50;;;;;;;;;;5041587;28;20517;-59
2023/10/26 01:15:20;;;;;;;0.90;0.60;;;;;;;;;;5044330;28;20028;-58
2023/10/26 01:17:46;;;;;;;1.05;0.40;;;;;;;;;;5046034;28;20049;-58
2023/10/26 01:20:19;;;;;;;1.77;0.70;;;;;;;;;;5043103;28;20374;-58
2023/10/26 01:22:45;;;;;;;1.08;0.45;;;;;;;;;;5046082;28;20061;-58
2023/10/26 01:25:12;;;;;;;1.48;0.68;;;;;;;;;;5045678;28;20059;-58
2023/10/26 01:27:38;;;;;;;2.17;0.32;;;;;;;;;;5042705;28;20501;-58
2023/10/26 01:30:05;;;;;;;1.92;0.60;;;;;;;;;;5043554;28;20437;-57
2023/10/26 01:32:31;;;;;;;1.55;0.60;;;;;;;;;;5046765;28;20044;-58
2023/10/26 01:34:57;;;;;;;0.95;0.50;;;;;;;;;;5046165;28;20060;-58
2023/10/26 01:37:23;;;;;;;1.63;0.40;;;;;;;;;;5045762;28;20040;-57
2023/10/26 01:39:49;;;;;;;1.02;0.68;;;;;;;;;;5041345;28;20041;-58
2023/10/26 01:42:15;;;;;;;2.03;0.60;;;;;;;;;;5045827;28;20052;-58
2023/10/26 01:44:43;;;;;;;1.17;0.52;;;;;;;;;;5045817;28;20029;-58
2023/10/26 01:47:12;;;;;;;2.58;0.50;;;;;;;;;;5044794;28;20037;-58
2023/10/26 01:49:38;;;;;;;1.57;0.60;;;;;;;;;;5045779;28;20045;-58
2023/10/26 01:52:04;;;;;;;1.23;0.60;;;;;;;;;;5045872;28;20664;-58
2023/10/26 01:54:32;;;;;;;1.58;0.50;;;;;;;;;;5045862;28;20409;-58
2023/10/26 01:56:59;;;;;;;1.23;0.47;;;;;;;;;;5026835;28;20041;-58
2023/10/26 01:59:25;;;;;;;0.52;0.43;;;;;;;;;;5016232;28;20040;-58
2023/10/26 02:01:51;;;;;;;1.38;0.60;;;;;;;;;;5043171;28;20057;-58
2023/10/26 02:04:17;;;;;;;0.88;0.47;;;;;;;;;;5043736;28;20041;-58
2023/10/26 02:06:44;;;;;;;0.70;0.50;;;;;;;;;;5045302;28;20029;-58
2023/10/26 02:09:10;;;;;;;1.65;0.60;;;;;;;;;;5040174;28;20036;-59
2023/10/26 02:11:36;;;;;;;2.53;0.60;;;;;;;;;;5043666;28;20517;-59
2023/10/26 02:14:02;;;;;;;2.10;0.60;;;;;;;;;;5025711;28;20047;-58
2023/10/26 02:16:28;;;;;;;1.77;0.70;;;;;;;;;;5043477;28;20037;-59
2023/10/26 02:18:54;;;;;;;0.50;0.50;;;;;;;;;;5039102;28;20048;-58
2023/10/26 02:21:20;;;;;;;1.42;0.50;;;;;;;;;;5046918;28;20051;-59
2023/10/26 02:23:46;;;;;;;0.85;0.50;;;;;;;;;;5024300;28;20041;-58
2023/10/26 02:26:12;;;;;;;1.95;0.47;;;;;;;;;;5046860;28;20060;-58
2023/10/26 02:28:38;;;;;;;0.50;0.40;;;;;;;;;;5045861;28;20040;-58
2023/10/26 02:31:05;;;;;;;0.55;0.50;;;;;;;;;;5042909;28;20041;-58
2023/10/26 02:33:31;;;;;;;2.05;0.70;;;;;;;;;;5046119;28;20494;-58
2023/10/26 02:35:57;;;;;;;0.88;0.50;;;;;;;;;;5047332;28;20040;-58
2023/10/26 02:38:23;;;;;;;1.10;0.73;;;;;;;;;;5046071;28;20037;-58
2023/10/26 02:40:50;;;;;;;0.93;0.50;;;;;;;;;;5012766;28;20025;-58
2023/10/26 02:43:17;;;;;;;3.03;0.60;;;;;;;;;;5037728;28;20425;-59
2023/10/26 02:45:43;;;;;;;0.40;0.40;;;;;;;;;;5046415;28;20513;-58
2023/10/26 02:48:09;;;;;;;2.67;0.63;;;;;;;;;;5042210;28;20033;-58
2023/10/26 02:50:36;;;;;;;1.85;0.70;;;;;;;;;;5049154;28;20052;-58
2023/10/26 02:53:02;;;;;;;2.20;0.60;;;;;;;;;;5044219;28;20037;-59
2023/10/26 02:55:28;;;;;;;3.92;0.80;;;;;;;;;;5048176;28;20033;-59
2023/10/26 02:57:58;;;;;;;1.30;0.60;;;;;;;;;;5044301;28;20589;-59
2023/10/26 03:00:24;;;;;;;1.08;0.60;;;;;;;;;;5041017;28;20033;-59
2023/10/26 03:02:50;;;;;;;1.02;0.50;;;;;;;;;;5049877;28;20044;-58
2023/10/26 03:05:16;;;;;;;2.08;0.88;;;;;;;;;;5044579;28;20044;-58
2023/10/26 03:07:45;;;;;;;1.95;0.60;;;;;;;;;;5047129;28;20041;-58
2023/10/26 03:10:12;;;;;;;0.88;0.57;;;;;;;;;;5044019;28;20049;-59
2023/10/26 03:12:39;;;;;;;0.90;0.60;;;;;;;;;;5046838;28;20049;-58
2023/10/26 03:15:06;;;;;;;6.05;0.70;;;;;;;;;;5045048;28;20040;-58
2023/10/26 03:17:32;;;;;;;4.95;0.68;;;;;;;;;;5044130;28;20053;-58
2023/10/26 03:19:58;;;;;;;1.63;0.60;;;;;;;;;;5046929;28;20048;-58
2023/10/26 03:22:24;;;;;;;2.80;0.90;;;;;;;;;;5046098;28;20056;-58
2023/10/26 03:24:51;;;;;;;1.52;0.70;;;;;;;;;;5048193;28;20028;-58
2023/10/26 03:27:17;;;;;;;1.52;0.70;;;;;;;;;;5047293;28;20056;-58
2023/10/26 03:29:43;;;;;;;1.55;0.80;;;;;;;;;;5045123;28;20033;-58
2023/10/26 03:32:10;;;;;;;4.97;2.25;;;;;;;;;;5047159;28;20036;-59
2023/10/26 03:34:36;;;;;;;2.25;0.70;;;;;;;;;;5049044;28;20045;-58
2023/10/26 03:37:02;;;;;;;0.90;0.80;;;;;;;;;;5047649;28;20040;-59
2023/10/26 03:39:29;;;;;;;3.80;2.05;;;;;;;;;;5048378;28;20043;-58
2023/10/26 03:41:55;;;;;;;1.50;0.82;;;;;;;;;;5049736;28;20509;-59
2023/10/26 03:44:22;;;;;;;0.85;0.80;;;;;;;;;;5047824;28;20044;-58
2023/10/26 03:46:48;;;;;;;3.28;1.00;;;;;;;;;;5047155;28;20045;-59
2023/10/26 03:49:14;;;;;;;2.70;1.10;;;;;;;;;;5045181;28;20041;-59
2023/10/26 03:51:41;;;;;;;7.40;1.83;;;;;;;;;;5047470;28;20052;-59
2023/10/26 03:54:07;;;;;;;2.30;0.90;;;;;;;;;;5047125;28;20032;-59
2023/10/26 03:56:33;;;;;;;1.42;0.90;;;;;;;;;;5049166;28;20035;-59
2023/10/26 03:58:59;;;;;;;4.95;1.02;;;;;;;;;;5039225;28;20053;-59
2023/10/26 04:01:25;;;;;;;4.40;1.00;;;;;;;;;;5048572;28;20516;-59
2023/10/26 04:03:51;;;;;;;4.50;2.10;;;;;;;;;;5047785;28;20551;-58
2023/10/26 04:06:17;;;;;;;2.92;1.15;;;;;;;;;;5047321;28;20041;-60
2023/10/26 04:08:46;;;;;;;2.78;1.88;;;;;;;;;;5044268;28;20048;-59
2023/10/26 04:11:18;;;;;;;2.10;0.90;;;;;;;;;;5044433;28;20109;-58
2023/10/26 04:13:44;;;;;;;1.70;0.95;;;;;;;;;;5044507;28;20421;-58
2023/10/26 04:16:11;;;;;;;2.53;0.80;;;;;;;;;;5042310;28;20033;-58
2023/10/26 04:18:37;;;;;;;4.25;1.20;;;;;;;;;;5041111;28;20044;-58
2023/10/26 04:21:04;;;;;;;3.80;1.10;;;;;;;;;;5040350;28;20033;-58
2023/10/26 04:23:30;;;;;;;1.85;0.90;;;;;;;;;;5036778;28;20037;-58
2023/10/26 04:25:56;;;;;;;1.90;0.90;;;;;;;;;;5044801;28;20426;-58
2023/10/26 04:28:23;;;;;;;1.92;0.75;;;;;;;;;;5045902;28;20048;-57
2023/10/26 04:30:49;;;;;;;2.75;1.40;;;;;;;;;;5044478;28;20029;-58
2023/10/26 04:33:17;;;;;;;6.90;1.55;;;;;;;;;;5047798;28;20049;-58
2023/10/26 04:35:44;;;;;;;2.40;0.88;;;;;;;;;;5045519;28;20035;-58
2023/10/26 04:38:10;;;;;;;4.30;0.98;;;;;;;;;;5040850;28;20048;-58
2023/10/26 04:40:39;;;;;;;2.80;0.95;;;;;;;;;;5043387;28;20064;-58
2023/10/26 04:43:06;;;;;;;3.43;0.80;;;;;;;;;;5042115;28;20059;-58
2023/10/26 04:45:32;;;;;;;3.00;1.30;;;;;;;;;;5025544;28;20033;-58
2023/10/26 04:47:59;;;;;;;3.08;1.20;;;;;;;;;;5027281;28;20571;-58
2023/10/26 04:50:25;;;;;;;3.97;1.30;;;;;;;;;;5040865;28;20558;-58
2023/10/26 04:52:51;;;;;;;4.57;2.15;;;;;;;;;;5047410;28;20029;-58
2023/10/26 04:55:17;;;;;;;3.25;1.20;;;;;;;;;;5047194;28;20048;-59
2023/10/26 04:57:43;;;;;;;6.40;1.80;;;;;;;;;;5042976;28;20036;-57
2023/10/26 05:00:10;;;;;;;1.88;1.27;;;;;;;;;;5041999;28;20547;-58
2023/10/26 05:02:37;;;;;;;9.02;3.17;;;;;;;;;;5043873;28;20060;-59
2023/10/26 05:05:04;;;;;;;1.65;0.98;;;;;;;;;;5041210;28;20041;-59
2023/10/26 05:07:30;;;;;;;2.05;1.10;;;;;;;;;;5045046;28;20041;-58
2023/10/26 05:09:57;;;;;;;2.50;1.13;;;;;;;;;;5043386;28;20057;-58
2023/10/26 05:12:23;;;;;;;3.25;1.27;;;;;;;;;;5022989;28;20036;-57
2023/10/26 05:14:49;;;;;;;4.50;1.38;;;;;;;;;;5045853;28;20493;-57
2023/10/26 05:17:15;;;;;;;4.00;1.20;;;;;;;;;;5044549;28;20033;-57
2023/10/26 05:19:41;;;;;;;2.33;1.08;;;;;;;;;;5044415;28;20044;-57
2023/10/26 05:22:07;;;;;;;2.03;0.85;;;;;;;;;;5046167;28;20493;-57
2023/10/26 05:24:34;;;;;;;3.28;1.15;;;;;;;;;;5043718;28;20033;-57
2023/10/26 05:27:00;;;;;;;1.33;1.20;;;;;;;;;;5047025;28;20048;-57
2023/10/26 05:29:28;;;;;;;4.25;1.60;;;;;;;;;;5044391;28;20025;-58
2023/10/26 05:31:55;;;;;;;3.60;0.95;;;;;;;;;;5039245;28;20037;-57
2023/10/26 05:34:22;;;;;;;2.67;0.88;;;;;;;;;;5044931;28;20045;-57
2023/10/26 05:36:48;;;;;;;3.60;1.25;;;;;;;;;;5046649;28;20036;-57
2023/10/26 05:39:15;;;;;;;2.90;1.65;;;;;;;;;;5045451;28;20041;-57
2023/10/26 05:41:42;;;;;;;2.17;1.30;;;;;;;;;;5045443;28;20401;-57
2023/10/26 05:44:08;;;;;;;3.92;1.40;;;;;;;;;;5039465;28;20043;-57
2023/10/26 05:46:35;;;;;;;3.85;1.30;;;;;;;;;;5045996;28;20044;-57
2023/10/26 05:49:01;;;;;;;3.15;1.33;;;;;;;;;;5044722;28;20505;-57
2023/10/26 05:51:27;;;;;;;2.65;1.10;;;;;;;;;;5042256;28;20029;-57
2023/10/26 05:53:53;;;;;;;2.67;1.20;;;;;;;;;;5044479;28;20044;-58
2023/10/26 05:56:19;;;;;;;3.50;1.13;;;;;;;;;;5044230;28;20033;-58
2023/10/26 05:58:48;;;;;;;2.35;1.58;;;;;;;;;;5040343;28;20041;-58
2023/10/26 06:01:14;;;;;;;2.05;1.02;;;;;;;;;;5044500;28;20045;-57
2023/10/26 06:03:40;;;;;;;2.70;1.42;;;;;;;;;;5049448;28;20502;-57
2023/10/26 06:06:06;;;;;;;1.73;1.15;;;;;;;;;;5046567;28;20045;-58
2023/10/26 06:08:32;;;;;;;2.10;1.33;;;;;;;;;;5045211;28;20051;-57
2023/10/26 06:10:58;;;;;;;1.77;1.30;;;;;;;;;;5045945;28;20049;-58
2023/10/26 06:13:25;;;;;;;1.52;1.23;;;;;;;;;;5048416;28;20037;-57
2023/10/26 06:15:51;;;;;;;5.80;1.48;;;;;;;;;;5048911;28;20041;-57
2023/10/26 06:18:17;;;;;;;3.10;1.10;;;;;;;;;;5041160;28;20154;-57
2023/10/26 06:20:56;;;;;;;2.92;1.10;;;;;;;;;;5045333;28;20029;-57
2023/10/26 06:23:22;;;;;;;5.20;1.92;;;;;;;;;;5048063;28;20049;-58
2023/10/26 06:25:48;;;;;;;3.35;1.27;;;;;;;;;;5049247;28;20043;-58
2023/10/26 06:28:14;;;;;;;3.33;1.13;;;;;;;;;;5048356;28;20048;-57
2023/10/26 06:30:40;;;;;;;4.10;1.40;;;;;;;;;;5047022;28;20036;-58
2023/10/26 06:33:06;;;;;;;3.38;1.10;;;;;;;;;;5048106;28;20055;-57
2023/10/26 06:35:32;;;;;;;2.17;1.05;;;;;;;;;;5045532;28;20040;-57
2023/10/26 06:37:58;;;;;;;2.97;1.30;;;;;;;;;;5047698;28;20060;-57
2023/10/26 06:40:24;;;;;;;3.42;1.70;;;;;;;;;;5045520;28;20035;-57
2023/10/26 06:42:50;;;;;;;1.60;1.27;;;;;;;;;;5049852;28;20053;-57
2023/10/26 06:45:17;;;;;;;1.77;1.52;;;;;;;;;;5047686;28;20041;-57
2023/10/26 06:47:43;;;;;;;1.92;1.15;;;;;;;;;;5047928;28;20047;-57
2023/10/26 06:50:09;;;;;;;1.40;1.08;;;;;;;;;;5043281;28;20037;-57
2023/10/26 06:52:35;;;;;;;3.72;2.00;;;;;;;;;;5037421;28;20033;-57
2023/10/26 06:55:01;;;;;;;3.20;1.80;;;;;;;;;;5040755;28;20052;-57
2023/10/26 06:57:28;;;;;;;1.65;1.40;;;;;;;;;;5041346;28;20029;-57
2023/10/26 06:59:54;;;;;;;1.80;1.25;;;;;;;;;;5039173;28;20041;-57
2023/10/26 07:02:20;;;;;;;2.60;1.02;;;;;;;;;;5039619;28;20481;-57
2023/10/26 07:04:46;;;;;;;2.88;1.80;;;;;;;;;;5039711;28;20029;-57
2023/10/26 07:07:14;;;;;;;3.95;1.98;;;;;;;;;;5036096;28;20409;-57
2023/10/26 07:09:40;;;;;;;3.75;1.48;;;;;;;;;;5035790;28;20045;-56
2023/10/26 07:12:07;;;;;;;3.08;1.35;;;;;;;;;;5023356;28;20037;-57
2023/10/26 07:14:34;;;;;;;1.98;0.90;;;;;;;;;;5034123;28;20394;-58
2023/10/26 07:17:00;;;;;;;1.00;0.90;;;;;;;;;;5044512;28;20039;-57
2023/10/26 07:19:26;;;;;;;2.33;1.10;;;;;;;;;;5036471;28;20425;-57
2023/10/26 07:21:52;;;;;;;1.23;0.90;;;;;;;;;;5039269;28;20049;-58
2023/10/26 07:24:19;;;;;;;1.27;1.00;;;;;;;;;;5037480;28;20056;-57
2023/10/26 07:26:45;;;;;;;1.40;0.82;;;;;;;;;;5038852;28;20033;-57
2023/10/26 07:29:11;;;;;;;0.98;0.88;;;;;;;;;;5041479;28;20607;-57
2023/10/26 07:31:37;;;;;;;0.82;0.80;;;;;;;;;;5041935;28;20045;-58
2023/10/26 07:34:03;;;;;;;1.23;0.90;;;;;;;;;;5039286;28;20034;-58
2023/10/26 07:36:30;;;;;;;1.08;0.93;;;;;;;;;;5042545;28;20532;-57
2023/10/26 07:38:58;;;;;;;1.15;0.90;;;;;;;;;;5037314;28;20040;-58
2023/10/26 07:41:25;;;;;;;2.85;1.10;;;;;;;;;;5043415;28;20410;-57
2023/10/26 07:43:52;;;;;;;2.78;1.95;;;;;;;;;;5039856;28;20095;-58
2023/10/26 07:46:19;;;;;;;1.23;1.00;;;;;;;;;;5040061;28;20029;-57
2023/10/26 07:48:46;;;;;;;3.38;2.03;;;;;;;;;;5047103;28;20041;-58
2023/10/26 07:51:12;;;;;;;2.75;1.60;;;;;;;;;;5040637;28;20029;-57
2023/10/26 07:53:38;;;;;;;1.85;1.13;;;;;;;;;;5038379;28;20506;-57
2023/10/26 07:56:04;;;;;;;1.63;1.00;;;;;;;;;;5047843;28;20044;-58
2023/10/26 07:58:32;;;;;;;1.95;1.30;;;;;;;;;;5047286;28;20401;-57
2023/10/26 08:00:59;;;;;;;2.58;1.40;;;;;;;;;;5047277;28;20421;-58
2023/10/26 08:03:25;;;;;;;1.40;1.30;;;;;;;;;;5046070;28;20056;-57
2023/10/26 08:05:59;;;;;;;2.47;1.85;;;;;;;;;;5045488;28;20028;-57
2023/10/26 08:08:25;;;;;;;1.70;1.10;;;;;;;;;;5040097;28;20044;-58
2023/10/26 08:10:51;;;;;;;1.98;1.00;;;;;;;;;;5042631;28;20025;-57
2023/10/26 08:13:17;;;;;;;1.23;1.10;;;;;;;;;;5039136;28;20037;-58
2023/10/26 08:15:43;;;;;;;2.33;1.20;;;;;;;;;;5038243;28;20042;-58
2023/10/26 08:18:11;;;;;;;1.98;1.13;;;;;;;;;;5040071;28;20182;-57
2023/10/26 08:20:38;;;;;;;1.40;1.00;;;;;;;;;;5040308;28;20680;-58
2023/10/26 08:23:04;;;;;;;1.00;0.93;;;;;;;;;;5040736;28;20061;-57
2023/10/26 08:25:36;;;;;;;0.82;0.70;;;;;;;;;;5041989;28;20059;-58
2023/10/26 08:28:03;;;;;;;0.73;0.73;;;;;;;;;;5039216;28;20044;-58
2023/10/26 08:30:29;;;;;;;1.42;0.95;;;;;;;;;;5038170;28;20489;-58
2023/10/26 08:32:56;;;;;;;0.70;0.65;;;;;;;;;;5041776;28;20045;-57
2023/10/26 08:35:22;;;;;;;2.10;1.08;;;;;;;;;;5041140;28;20068;-57
2023/10/26 08:37:49;;;;;;;1.20;1.10;;;;;;;;;;5037909;28;20056;-57
2023/10/26 08:40:15;;;;;;;1.33;0.85;;;;;;;;;;5037815;28;20037;-57
2023/10/26 08:42:43;;;;;;;1.15;0.80;;;;;;;;;;5042781;28;20044;-57
2023/10/26 08:45:20;;;;;;;1.33;0.80;;;;;;;;;;5040351;28;20045;-57
2023/10/26 08:47:49;;;;;;;0.70;0.70;;;;;;;;;;5039812;28;20672;-57
2023/10/26 08:50:16;;;;;;;1.35;0.80;;;;;;;;;;5043447;28;20036;-57
2023/10/26 08:52:43;;;;;;;0.82;0.80;;;;;;;;;;5046849;28;20060;-58
2023/10/26 08:55:09;;;;;;;0.90;0.80;;;;;;;;;;5042591;28;20501;-58
2023/10/26 08:58:00;;;;;;;1.20;1.10;;;;;;;;;;5046259;28;20029;-57
2023/10/26 09:00:29;;;;;;;1.40;1.05;;;;;;;;;;5045457;28;20037;-57
2023/10/26 09:02:55;;;;;;;1.00;0.80;;;;;;;;;;5036659;28;20048;-57
2023/10/26 09:05:22;;;;;;;0.50;0.50;;;;;;;;;;5039349;28;20033;-58
2023/10/26 09:07:48;;;;;;;0.60;0.60;;;;;;;;;;5040750;28;20037;-58
2023/10/26 09:10:29;;;;;;;0.80;0.80;;;;;;;;;;5039707;28;20514;-58
2023/10/26 09:13:00;;;;;;;1.23;0.70;;;;;;;;;;5040649;28;20041;-58
2023/10/26 09:15:28;;;;;;;1.00;0.80;;;;;;;;;;5042448;28;20037;-58
2023/10/26 09:17:57;;;;;;;1.50;0.80;;;;;;;;;;5037419;28;20041;-58
2023/10/26 09:20:26;;;;;;;1.02;0.70;;;;;;;;;;5045442;28;20049;-59
2023/10/26 09:22:52;;;;;;;1.00;0.90;;;;;;;;;;5045372;28;20032;-59
2023/10/26 09:25:19;;;;;;;1.35;0.80;;;;;;;;;;5046631;28;20529;-59
2023/10/26 09:27:46;;;;;;;1.17;1.00;;;;;;;;;;5042650;28;20045;-59
2023/10/26 09:30:29;;;;;;;1.75;1.10;;;;;;;;;;5040461;28;20037;-58
2023/10/26 09:32:56;;;;;;;3.28;1.83;;;;;;;;;;5047608;28;20536;-59
2023/10/26 09:35:26;;;;;;;2.75;1.25;;;;;;;;;;5050089;28;20056;-58
2023/10/26 09:37:52;;;;;;;;;;;;;;;;;;5048009;28;20049;-58
2023/10/26 09:40:22;;;;;;;1.27;1.17;;;;;;;;;;5050732;28;19920;-59
2023/10/26 09:42:49;;;;;;;22.15;5.53;;;;;;;;;;5051377;28;20055;-58
2023/10/26 09:45:17;;;;;;;2.17;1.30;;;;;;;;;;5047751;28;20441;-59
2023/10/26 09:47:45;;;;;;;1.10;0.80;;;;;;;;;;5049989;28;20045;-59
2023/10/26 09:50:11;;;;;;;1.20;0.80;;;;;;;;;;5048715;28;20497;-59
2023/10/26 09:52:39;;;;;;;2.30;1.45;;;;;;;;;;5051282;28;20103;-58
2023/10/26 09:55:07;;;;;;;5.10;3.13;;;;;;;;;;5051317;28;20044;-58
2023/10/26 09:57:35;;;;;;;3.88;1.30;;;;;;;;;;5049491;28;20111;-58
2023/10/26 10:00:07;;;;;;;4.85;2.50;;;;;;;;;;5050882;28;20029;-58
2023/10/26 10:02:39;;;;;;;8.45;4.65;;;;;;;;;;5044234;28;20041;-57
2023/10/26 10:05:05;;;;;;;1.00;0.70;;;;;;;;;;5049781;28;20041;-58
2023/10/26 10:07:42;;;;;;;1.30;0.60;;;;;;;;;;5049066;28;20048;-58
2023/10/26 10:10:09;;;;;;;0.77;0.70;;;;;;;;;;5049385;28;20048;-58
2023/10/26 10:12:38;;;;;;;1.85;1.50;;;;;;;;;;5046900;28;20041;-58
2023/10/26 10:15:06;;;;;;;1.95;1.20;;;;;;;;;;5047744;28;20489;-57
2023/10/26 10:17:45;;;;;;;12.98;4.47;;;;;;;;;;5047262;28;20045;-57
2023/10/26 10:20:14;;;;;;;4.38;1.90;;;;;;;;;;5048607;28;20041;-58
2023/10/26 10:22:40;;;;;;;2.13;1.25;;;;;;;;;;5048793;28;20044;-57
2023/10/26 10:25:10;;;;;;;1.55;0.80;;;;;;;;;;5047287;28;20033;-57
2023/10/26 10:27:37;;;;;;;1.67;1.10;;;;;;;;;;5045084;28;20040;-57
2023/10/26 10:30:07;;;;;;;4.43;2.88;;;;;;;;;;5049109;28;20033;-57
2023/10/26 10:32:43;;;;;;;6.00;3.80;;;;;;;;;;5048345;28;20041;-57
2023/10/26 10:35:13;;;;;;;8.00;4.25;;;;;;;;;;5049224;28;20036;-57
2023/10/26 10:38:25;;;;;;;7.43;4.55;;;;;;;;;;5044373;28;20029;-58
2023/10/26 10:40:54;;;;;;;5.03;3.88;;;;;;;;;;5046125;28;20044;-58
2023/10/26 10:43:43;;;;;;;7.00;4.30;;;;;;;;;;5046191;28;20052;-57
2023/10/26 10:46:12;;;;;;;9.50;4.93;;;;;;;;;;5045681;28;20048;-56
2023/10/26 10:49:08;;;;;;;6.43;4.38;;;;;;;;;;5048071;28;20501;-58
2023/10/26 10:51:37;;;;;;;5.43;4.65;;;;;;;;;;5048904;28;20041;-57
2023/10/26 10:54:12;;;;;;;8.98;5.18;;;;;;;;;;5046394;28;20045;-57
2023/10/26 10:56:48;;;;;;;5.70;4.00;;;;;;;;;;5047592;28;20043;-57
2023/10/26 10:59:29;;;;;;;5.93;3.97;;;;;;;;;;5041756;28;20045;-57
2023/10/26 11:02:13;;;;;;;4.32;3.08;;;;;;;;;;5045641;28;20049;-57
2023/10/26 11:04:59;;;;;;;6.07;3.80;;;;;;;;;;5042977;28;20053;-57
2023/10/26 11:07:27;;;;;;;2.22;1.05;;;;;;;;;;5047524;28;20049;-57
2023/10/26 11:09:57;;;;;;;1.52;1.10;;;;;;;;;;5043372;28;20041;-57
2023/10/26 11:12:24;;;;;;;2.35;1.20;;;;;;;;;;5040242;28;20060;-57
2023/10/26 11:14:52;;;;;;;2.67;1.63;;;;;;;;;;5048835;28;20029;-57
2023/10/26 11:17:23;;;;;;;1.17;0.90;;;;;;;;;;5045058;28;20060;-57
2023/10/26 11:19:50;;;;;;;2.15;0.90;;;;;;;;;;5041897;28;20098;-57
2023/10/26 11:22:18;;;;;;;3.50;1.20;;;;;;;;;;5046746;28;20052;-58
2023/10/26 11:24:44;;;;;;;3.00;1.20;;;;;;;;;;5049311;28;20032;-58
2023/10/26 11:27:18;;;;;;;4.45;1.50;;;;;;;;;;5048943;28;20033;-58
2023/10/26 11:29:59;;;;;;;3.05;1.60;;;;;;;;;;5045474;28;20037;-58
2023/10/26 11:32:25;;;;;;;5.95;1.90;;;;;;;;;;5048660;28;20029;-58
2023/10/26 11:35:05;;;;;;;5.32;2.05;;;;;;;;;;5047552;28;20692;-57
2023/10/26 11:37:36;;;;;;;3.13;1.50;;;;;;;;;;5047223;28;20056;-57
2023/10/26 11:40:07;;;;;;;2.47;1.52;;;;;;;;;;5049099;28;20037;-58
2023/10/26 11:42:45;;;;;;;3.58;1.60;;;;;;;;;;5046971;28;20029;-57
2023/10/26 11:45:11;;;;;;;4.78;2.03;;;;;;;;;;5045785;28;20440;-57
2023/10/26 11:47:52;;;;;;;3.25;1.30;;;;;;;;;;5045603;28;20056;-58
2023/10/26 11:50:25;;;;;;;5.00;2.70;;;;;;;;;;5045334;28;20037;-57
2023/10/26 11:52:54;;;;;;;5.88;3.58;;;;;;;;;;5047407;28;20033;-57
2023/10/26 11:55:21;;;;;;;5.10;3.70;;;;;;;;;;5044112;28;20030;-57
2023/10/26 11:57:48;;;;;;;5.05;3.25;;;;;;;;;;5041943;28;20037;-58
2023/10/26 12:00:16;;;;;;;5.85;3.67;;;;;;;;;;5046659;28;20040;-57
2023/10/26 12:02:42;;;;;;;6.68;3.53;;;;;;;;;;5042542;28;20516;-57
2023/10/26 12:05:13;;;;;;;6.78;3.65;;;;;;;;;;5047116;28;20053;-57
2023/10/26 12:07:39;;;;;;;4.70;4.20;;;;;;;;;;5046369;28;20060;-57
2023/10/26 12:10:05;;;;;;;5.22;4.20;;;;;;;;;;5047773;28;20049;-57
2023/10/26 12:12:32;;;;;;;6.32;4.47;;;;;;;;;;5041327;28;20040;-57
2023/10/26 12:14:58;;;;;;;4.35;3.72;;;;;;;;;;5044698;28;20441;-57
2023/10/26 12:17:24;;;;;;;5.47;4.07;;;;;;;;;;5044634;28;20041;-57
2023/10/26 12:19:50;;;;;;;7.40;3.30;;;;;;;;;;5039872;28;20044;-58
2023/10/26 12:22:16;;;;;;;4.13;2.58;;;;;;;;;;5044532;28;20405;-58
2023/10/26 12:24:43;;;;;;;6.13;3.25;;;;;;;;;;5044636;28;20064;-58
2023/10/26 12:27:09;;;;;;;3.90;2.65;;;;;;;;;;5046065;28;20048;-58
2023/10/26 12:29:35;;;;;;;4.10;2.20;;;;;;;;;;5042422;28;20044;-58
2023/10/26 12:32:01;;;;;;;3.88;2.72;;;;;;;;;;5042960;28;20033;-58
2023/10/26 12:34:28;;;;;;;2.67;2.03;;;;;;;;;;5046819;28;20044;-58
2023/10/26 12:36:54;;;;;;;3.88;2.17;;;;;;;;;;5048233;28;20072;-58
2023/10/26 12:39:20;;;;;;;4.72;2.28;;;;;;;;;;5045931;28;20052;-58
2023/10/26 12:41:46;;;;;;;3.45;1.95;;;;;;;;;;5045562;28;20038;-58
2023/10/26 12:44:12;;;;;;;4.55;2.30;;;;;;;;;;5048165;28;20048;-58
2023/10/26 12:46:38;;;;;;;4.57;2.78;;;;;;;;;;5047500;28;20048;-58
2023/10/26 12:49:04;;;;;;;5.82;2.53;;;;;;;;;;5046495;28;20037;-59
2023/10/26 12:51:30;;;;;;;4.82;2.65;;;;;;;;;;5041194;28;20725;-58
2023/10/26 12:53:56;;;;;;;6.68;2.50;;;;;;;;;;5041724;28;20033;-59
2023/10/26 12:56:22;;;;;;;3.97;2.20;;;;;;;;;;5042127;28;20040;-59
2023/10/26 12:58:48;;;;;;;3.38;2.25;;;;;;;;;;5044024;28;20801;-58
2023/10/26 13:01:15;;;;;;;3.58;2.70;;;;;;;;;;5045388;28;20056;-57
2023/10/26 13:03:41;;;;;;;5.35;3.40;;;;;;;;;;5042487;28;20049;-57
2023/10/26 13:06:07;;;;;;;4.93;2.15;;;;;;;;;;5043742;28;20041;-57
2023/10/26 13:08:33;;;;;;;5.75;1.88;;;;;;;;;;5038275;28;20050;-57
2023/10/26 13:10:59;;;;;;;7.22;2.10;;;;;;;;;;5041706;28;20041;-57
2023/10/26 13:13:25;;;;;;;5.70;2.53;;;;;;;;;;5038306;28;20642;-57
2023/10/26 13:15:51;;;;;;;11.50;2.85;;;;;;;;;;5044088;28;20040;-57
2023/10/26 13:18:17;;;;;;;5.43;2.20;;;;;;;;;;5035073;28;20034;-57
2023/10/26 13:20:44;;;;;;;9.23;2.33;;;;;;;;;;5042742;28;20057;-57
2023/10/26 13:23:10;;;;;;;5.63;1.60;;;;;;;;;;5039109;28;20036;-57
2023/10/26 13:25:36;;;;;;;9.30;2.45;;;;;;;;;;5039883;28;20057;-57
2023/10/26 13:28:03;;;;;;;9.02;2.40;;;;;;;;;;5037441;28;20154;-57
2023/10/26 13:30:30;;;;;;;9.40;1.90;;;;;;;;;;5034501;28;20053;-58
2023/10/26 13:32:56;;;;;;;7.95;1.85;;;;;;;;;;5047119;28;20033;-57
2023/10/26 13:35:24;;;;;;;6.75;2.00;;;;;;;;;;5046629;28;20044;-57
2023/10/26 13:37:50;;;;;;;6.00;2.42;;;;;;;;;;5043538;28;20528;-58
2023/10/26 13:40:16;;;;;;;11.52;3.42;;;;;;;;;;5046491;28;20501;-58
2023/10/26 13:42:45;;;;;;;10.63;3.50;;;;;;;;;;5045216;28;20052;-58
2023/10/26 13:45:11;;;;;;;6.63;2.92;;;;;;;;;;5046604;28;20041;-58
2023/10/26 13:47:37;;;;;;;7.65;2.00;;;;;;;;;;5042733;28;20048;-57
2023/10/26 13:50:04;;;;;;;5.95;1.70;;;;;;;;;;5037985;28;20634;-57
2023/10/26 13:52:30;;;;;;;8.25;1.75;;;;;;;;;;5044136;28;20052;-57
2023/10/26 13:54:56;;;;;;;11.20;2.20;;;;;;;;;;5044264;28;20044;-57
2023/10/26 13:57:22;;;;;;;11.18;2.13;;;;;;;;;;5042688;28;20036;-58
2023/10/26 13:59:48;;;;;;;7.43;1.67;;;;;;;;;;5044780;28;20056;-58
2023/10/26 14:02:19;;;;;;;6.75;1.50;;;;;;;;;;5044185;28;20080;-59
2023/10/26 14:04:45;;;;;;;11.13;1.80;;;;;;;;;;5042868;28;20049;-58
2023/10/26 14:07:11;;;;;;;9.02;2.33;;;;;;;;;;5040262;28;20041;-58
2023/10/26 14:09:37;;;;;;;13.68;2.83;;;;;;;;;;5042916;28;20048;-58
2023/10/26 14:12:03;;;;;;;10.18;2.85;;;;;;;;;;5039623;28;20123;-57
2023/10/26 14:14:34;;;;;;;7.78;1.70;;;;;;;;;;5044679;28;20033;-57
2023/10/26 14:17:00;;;;;;;5.90;1.75;;;;;;;;;;5041352;28;20394;-56
2023/10/26 14:19:26;;;;;;;9.13;1.92;;;;;;;;;;5038883;28;20037;-57
2023/10/26 14:21:52;;;;;;;7.20;1.90;;;;;;;;;;5046664;28;20041;-57
2023/10/26 14:24:19;;;;;;;7.72;1.85;;;;;;;;;;5047930;28;20037;-58
2023/10/26 14:26:45;;;;;;;3.95;1.38;;;;;;;;;;5048706;28;20040;-57
2023/10/26 14:29:11;;;;;;;9.88;1.88;;;;;;;;;;5046205;28;20428;-57
2023/10/26 14:31:37;;;;;;;6.72;1.60;;;;;;;;;;5044545;28;20038;-57
2023/10/26 14:34:03;;;;;;;8.27;1.90;;;;;;;;;;5049227;28;20032;-58
2023/10/26 14:36:29;;;;;;;6.55;1.60;;;;;;;;;;5041868;28;20048;-58
2023/10/26 14:38:56;;;;;;;8.65;1.98;;;;;;;;;;5048278;28;20040;-58
2023/10/26 14:41:22;;;;;;;11.98;1.92;;;;;;;;;;5046360;28;20044;-58
2023/10/26 14:43:49;;;;;;;5.60;1.90;;;;;;;;;;5039335;28;20045;-58
2023/10/26 14:46:15;;;;;;;7.07;1.88;;;;;;;;;;5041218;28;20410;-58